createdAt,value
2023-03-12T00:01:13.900Z,64.97
2023-03-12T00:03:47.197Z,64.91
2023-03-12T00:06:21.922Z,64.06
2023-03-12T00:08:56.339Z,65.01
2023-03-12T00:11:30.832Z,63.76
2023-03-12T00:14:04.391Z,63.74
2023-03-12T00:16:37.710Z,63.66
2023-03-12T00:19:12.747Z,63.00
2023-03-12T00:21:45.748Z,63.22
2023-03-12T00:24:18.686Z,63.48
2023-03-12T00:26:53.022Z,63.54
2023-03-12T00:29:25.900Z,63.11
2023-03-12T00:31:58.901Z,64.10
2023-03-12T00:34:32.102Z,63.95
2023-03-12T00:37:05.056Z,63.62
2023-03-12T00:39:38.152Z,63.74
2023-03-12T00:42:13.015Z,63.65
2023-03-12T00:44:46.170Z,62.18
2023-03-12T00:47:19.190Z,61.85
2023-03-12T00:49:52.456Z,61.85
2023-03-12T00:52:25.729Z,61.55
2023-03-12T00:54:59.002Z,61.10
2023-03-12T00:57:33.321Z,61.06
2023-03-12T01:00:09.961Z,61.47
2023-03-12T01:02:43.057Z,61.30
2023-03-12T01:05:16.645Z,61.36
2023-03-12T01:07:49.821Z,60.98
2023-03-12T01:10:23.223Z,61.13
2023-03-12T01:12:59.708Z,61.15
2023-03-12T01:15:33.254Z,61.81
2023-03-12T01:18:06.714Z,62.69
2023-03-12T01:20:47.154Z,62.47
2023-03-12T01:23:20.189Z,62.65
2023-03-12T01:25:55.549Z,62.24
2023-03-12T01:28:29.817Z,62.62
2023-03-12T01:31:07.388Z,62.29
2023-03-12T01:33:40.618Z,62.72
2023-03-12T01:36:17.664Z,63.41
2023-03-12T01:38:51.564Z,62.84
2023-03-12T01:41:25.198Z,64.02
2023-03-12T01:44:01.740Z,62.89
2023-03-12T01:46:35.484Z,62.55
2023-03-12T01:49:10.315Z,62.63
2023-03-12T01:51:44.562Z,62.71
2023-03-12T01:54:19.875Z,62.11
2023-03-12T01:56:53.663Z,62.62
2023-03-12T01:59:31.338Z,62.44
2023-03-12T02:02:04.969Z,62.34
2023-03-12T02:04:38.794Z,62.25
2023-03-12T02:07:13.226Z,61.80
2023-03-12T02:09:49.413Z,62.44
2023-03-12T02:12:22.698Z,61.22
2023-03-12T02:14:57.679Z,61.53
2023-03-12T02:17:31.200Z,61.01
2023-03-12T02:20:11.095Z,60.16
2023-03-12T02:22:48.263Z,61.55
2023-03-12T02:25:31.324Z,60.79
2023-03-12T02:28:06.166Z,60.37
2023-03-12T02:30:41.206Z,61.18
2023-03-12T02:33:15.316Z,60.32
2023-03-12T02:35:48.807Z,59.68
2023-03-12T02:38:39.352Z,58.93
2023-03-12T02:41:17.688Z,57.99
2023-03-12T02:43:51.398Z,56.46
2023-03-12T02:46:24.559Z,57.86
2023-03-12T02:48:57.884Z,56.07
2023-03-12T02:51:31.469Z,57.23
2023-03-12T02:54:04.926Z,54.60
2023-03-12T02:56:39.469Z,54.33
2023-03-12T02:59:13.282Z,55.12
2023-03-12T03:01:46.288Z,55.08
2023-03-12T03:04:19.684Z,54.41
2023-03-12T03:06:53.611Z,54.50
2023-03-12T03:09:26.532Z,55.47
2023-03-12T03:12:01.998Z,54.49
2023-03-12T03:14:35.249Z,54.92
2023-03-12T03:17:08.659Z,54.10
2023-03-12T03:19:41.815Z,53.92
2023-03-12T03:22:15.173Z,54.67
2023-03-12T03:24:48.501Z,53.29
2023-03-12T03:27:22.861Z,53.95
2023-03-12T03:29:55.901Z,53.81
2023-03-12T03:32:28.938Z,54.35
2023-03-12T03:35:02.103Z,53.75
2023-03-12T03:37:35.244Z,54.18
2023-03-12T03:40:11.771Z,53.83
2023-03-12T03:42:46.072Z,55.32
2023-03-12T03:45:20.550Z,54.12
2023-03-12T03:47:53.605Z,54.02
2023-03-12T03:50:26.873Z,55.09
2023-03-12T03:53:00.544Z,54.97
2023-03-12T03:55:33.459Z,55.97
2023-03-12T03:58:08.133Z,55.34
2023-03-12T04:00:41.276Z,56.61
2023-03-12T04:03:14.477Z,55.60
2023-03-12T04:05:48.285Z,55.87
2023-03-12T04:08:21.243Z,55.82
2023-03-12T04:10:54.288Z,55.92
2023-03-12T04:13:29.829Z,56.24
2023-03-12T04:16:03.498Z,55.61
2023-03-12T04:18:37.182Z,56.55
2023-03-12T04:21:11.022Z,56.43
2023-03-12T04:23:43.970Z,55.27
2023-03-12T04:26:17.464Z,55.22
2023-03-12T04:28:52.039Z,54.54
2023-03-12T04:31:24.978Z,55.33
2023-03-12T04:33:58.339Z,55.18
2023-03-12T04:36:31.678Z,54.27
2023-03-12T04:39:07.225Z,53.29
2023-03-12T04:41:40.268Z,54.23
2023-03-12T04:44:14.884Z,53.74
2023-03-12T04:46:47.917Z,53.87
2023-03-12T04:49:21.366Z,53.36
2023-03-12T04:51:54.248Z,53.18
2023-03-12T04:54:27.046Z,52.30
2023-03-12T04:56:59.936Z,52.64
2023-03-12T04:59:34.250Z,52.15
2023-03-12T05:02:07.138Z,54.07
2023-03-12T05:04:40.398Z,51.84
2023-03-12T05:07:13.375Z,52.44
2023-03-12T05:09:46.418Z,52.20
2023-03-12T05:12:19.965Z,50.73
2023-03-12T05:14:55.125Z,49.43
2023-03-12T05:17:28.649Z,49.40
2023-03-12T05:20:02.104Z,49.70
2023-03-12T05:22:35.112Z,49.05
2023-03-12T05:25:08.862Z,48.61
2023-03-12T05:27:41.740Z,48.93
2023-03-12T05:30:16.497Z,49.82
2023-03-12T05:32:49.930Z,49.69
2023-03-12T05:35:23.358Z,48.92
2023-03-12T05:37:56.403Z,48.33
2023-03-12T05:40:29.486Z,48.30
2023-03-12T05:43:02.499Z,47.50
2023-03-12T05:45:37.188Z,47.98
2023-03-12T05:48:10.209Z,48.32
2023-03-12T05:50:43.605Z,47.95
2023-03-12T05:53:16.518Z,48.09
2023-03-12T05:55:49.654Z,47.99
2023-03-12T05:58:22.781Z,48.05
2023-03-12T06:00:59.198Z,48.11
2023-03-12T06:03:32.160Z,46.96
2023-03-12T06:06:05.713Z,47.84
2023-03-12T06:08:38.661Z,47.39
2023-03-12T06:11:11.897Z,48.01
2023-03-12T06:13:45.159Z,47.15
2023-03-12T06:16:21.623Z,47.87
2023-03-12T06:18:54.921Z,46.66
2023-03-12T06:21:29.279Z,47.17
2023-03-12T06:24:02.251Z,47.74
2023-03-12T06:26:35.348Z,48.74
2023-03-12T06:29:08.244Z,47.56
2023-03-12T06:31:44.134Z,47.53
2023-03-12T06:34:17.955Z,46.63
2023-03-12T06:36:51.202Z,48.70
2023-03-12T06:39:24.448Z,47.31
2023-03-12T06:41:57.542Z,47.74
2023-03-12T06:44:30.563Z,47.38
2023-03-12T06:47:04.934Z,46.67
2023-03-12T06:49:38.952Z,47.00
2023-03-12T06:52:12.138Z,46.58
2023-03-12T06:54:45.126Z,46.63
2023-03-12T06:57:18.101Z,46.14
2023-03-12T06:59:51.657Z,46.59
2023-03-12T07:02:25.894Z,47.06
2023-03-12T07:04:59.185Z,46.58
2023-03-12T07:07:32.443Z,45.60
2023-03-12T07:10:06.654Z,45.26
2023-03-12T07:12:40.948Z,45.54
2023-03-12T07:15:14.462Z,44.77
2023-03-12T07:17:49.462Z,44.85
2023-03-12T07:20:22.586Z,45.33
2023-03-12T07:22:55.761Z,46.34
2023-03-12T07:25:29.042Z,46.00
2023-03-12T07:28:02.179Z,45.91
2023-03-12T07:30:35.630Z,47.37
2023-03-12T07:33:12.650Z,46.15
2023-03-12T07:35:49.193Z,45.75
2023-03-12T07:38:23.137Z,44.35
2023-03-12T07:40:57.155Z,44.62
2023-03-12T07:43:30.239Z,44.67
2023-03-12T07:46:06.828Z,43.75
2023-03-12T07:48:44.137Z,44.51
2023-03-12T07:51:17.481Z,45.45
2023-03-12T07:53:50.552Z,45.51
2023-03-12T07:56:23.560Z,44.86
2023-03-12T07:58:56.792Z,44.55
2023-03-12T08:01:32.285Z,44.89
2023-03-12T08:04:07.276Z,45.69
2023-03-12T08:06:42.873Z,44.89
2023-03-12T08:09:15.858Z,44.90
2023-03-12T08:11:52.725Z,44.47
2023-03-12T08:14:26.754Z,44.39
2023-03-12T08:17:01.300Z,43.72
2023-03-12T08:19:36.015Z,44.26
2023-03-12T08:22:09.764Z,44.00
2023-03-12T08:24:42.916Z,44.46
2023-03-12T08:27:15.920Z,43.29
2023-03-12T08:29:49.070Z,42.88
2023-03-12T08:32:22.732Z,42.87
2023-03-12T08:34:57.731Z,43.01
2023-03-12T08:37:30.807Z,42.07
2023-03-12T08:40:05.686Z,41.70
2023-03-12T08:42:38.840Z,40.91
2023-03-12T08:45:13.229Z,41.65
2023-03-12T08:47:46.985Z,40.40
2023-03-12T08:50:22.757Z,40.81
2023-03-12T08:52:55.728Z,42.03
2023-03-12T08:55:29.081Z,42.46
2023-03-12T08:58:02.144Z,42.68
2023-03-12T09:00:35.486Z,41.53
2023-03-12T09:03:08.699Z,41.76
2023-03-12T09:05:43.161Z,42.13
2023-03-12T09:08:16.531Z,41.92
2023-03-12T09:10:50.214Z,41.49
2023-03-12T09:13:26.124Z,41.01
2023-03-12T09:16:01.951Z,41.59
2023-03-12T09:18:35.568Z,41.11
2023-03-12T09:21:10.085Z,39.50
2023-03-12T09:23:43.018Z,39.86
2023-03-12T09:26:16.133Z,40.32
2023-03-12T09:28:50.259Z,40.98
2023-03-12T09:31:23.524Z,41.03
2023-03-12T09:33:56.608Z,41.00
2023-03-12T09:36:30.918Z,39.81
2023-03-12T09:39:04.322Z,40.16
2023-03-12T09:41:40.003Z,40.76
2023-03-12T09:44:18.049Z,40.23
2023-03-12T09:46:53.041Z,40.07
2023-03-12T09:49:31.885Z,40.15
2023-03-12T09:52:14.381Z,40.70
2023-03-12T09:54:53.484Z,41.19
2023-03-12T09:57:27.734Z,40.88
2023-03-12T10:00:01.330Z,41.17
2023-03-12T10:02:52.167Z,40.96
2023-03-12T10:05:27.835Z,40.74
2023-03-12T10:08:23.058Z,39.57
2023-03-12T10:10:59.706Z,39.07
2023-03-12T10:13:43.620Z,37.67
2023-03-12T10:16:26.945Z,36.49
2023-03-12T10:19:16.314Z,38.12
2023-03-12T10:21:52.803Z,37.29
2023-03-12T10:24:32.405Z,37.55
2023-03-12T10:27:10.320Z,37.24
2023-03-12T10:29:45.676Z,37.79
2023-03-12T10:32:20.933Z,38.02
2023-03-12T10:34:56.198Z,36.79
2023-03-12T10:37:30.568Z,37.83
2023-03-12T10:40:06.071Z,37.68
2023-03-12T10:42:40.457Z,37.12
2023-03-12T10:45:21.974Z,36.47
2023-03-12T10:47:57.441Z,36.34
2023-03-12T10:50:31.714Z,36.28
2023-03-12T10:53:15.193Z,36.07
2023-03-12T10:56:00.690Z,36.17
2023-03-12T10:58:35.490Z,36.17
2023-03-12T11:01:20.593Z,35.85
2023-03-12T11:03:54.248Z,35.81
2023-03-12T11:06:28.793Z,36.47
2023-03-12T11:09:16.820Z,36.21
2023-03-12T11:11:52.648Z,36.49
2023-03-12T11:14:27.025Z,36.68
2023-03-12T11:17:20.149Z,36.80
2023-03-12T11:19:53.240Z,36.32
2023-03-12T11:22:31.259Z,36.71
2023-03-12T11:25:06.081Z,35.84
2023-03-12T11:27:42.438Z,35.51
2023-03-12T11:30:17.097Z,35.81
2023-03-12T11:32:50.889Z,36.40
2023-03-12T11:35:31.055Z,36.26
2023-03-12T11:38:07.592Z,36.53
2023-03-12T11:40:50.984Z,35.98
2023-03-12T11:43:43.182Z,36.43
2023-03-12T11:46:27.939Z,36.01
2023-03-12T11:49:09.047Z,35.74
2023-03-12T11:51:47.666Z,35.34
2023-03-12T11:54:38.331Z,35.62
2023-03-12T11:57:15.860Z,35.92
2023-03-12T11:59:58.043Z,35.59
2023-03-12T12:02:41.908Z,35.08
2023-03-12T12:05:23.735Z,35.13
2023-03-12T12:08:02.408Z,35.63
2023-03-12T12:10:40.765Z,35.44
2023-03-12T12:13:19.438Z,35.61
2023-03-12T12:15:58.948Z,36.23
2023-03-12T12:18:43.023Z,35.85
2023-03-12T12:21:23.836Z,36.53
2023-03-12T12:24:10.995Z,36.30
2023-03-12T12:26:48.051Z,36.28
2023-03-12T12:29:27.039Z,36.83
2023-03-12T12:32:03.286Z,35.63
2023-03-12T12:34:47.265Z,35.89
2023-03-12T12:37:24.077Z,36.14
2023-03-12T12:40:01.324Z,36.00
2023-03-12T12:42:35.509Z,36.02
2023-03-12T12:45:14.657Z,35.90
2023-03-12T12:47:51.300Z,36.38
2023-03-12T12:50:27.082Z,35.94
2023-03-12T12:53:04.467Z,36.06
2023-03-12T12:55:40.473Z,36.54
2023-03-12T12:58:15.001Z,36.70
2023-03-12T13:00:49.969Z,36.41
2023-03-12T13:03:25.497Z,35.59
2023-03-12T13:05:59.531Z,36.16
2023-03-12T13:08:38.119Z,35.60
2023-03-12T13:11:24.892Z,35.29
2023-03-12T13:14:15.699Z,34.49
2023-03-12T13:16:49.636Z,34.65
2023-03-12T13:19:25.751Z,35.82
2023-03-12T13:22:05.099Z,36.10
2023-03-12T13:24:44.493Z,36.16
2023-03-12T13:27:19.999Z,36.18
2023-03-12T13:29:57.103Z,36.18
2023-03-12T13:33:01.425Z,35.74
2023-03-12T13:35:37.903Z,36.29
2023-03-12T13:38:13.327Z,36.38
2023-03-12T13:41:00.941Z,36.57
2023-03-12T13:43:49.798Z,36.16
2023-03-12T13:46:29.897Z,36.48
2023-03-12T13:49:06.281Z,36.97
2023-03-12T13:51:46.472Z,37.14
2023-03-12T13:54:20.350Z,37.81
2023-03-12T13:56:58.654Z,37.99
2023-03-12T13:59:33.124Z,37.53
2023-03-12T14:02:13.284Z,38.09
2023-03-12T14:04:46.700Z,37.66
2023-03-12T14:07:41.170Z,38.07
2023-03-12T14:10:20.808Z,38.08
2023-03-12T14:12:58.228Z,38.40
2023-03-12T14:15:34.611Z,37.80
2023-03-12T14:18:13.788Z,37.85
2023-03-12T14:20:52.012Z,37.59
2023-03-12T14:23:28.858Z,38.92
2023-03-12T14:26:04.243Z,39.24
2023-03-12T14:28:41.287Z,39.86
2023-03-12T14:31:15.519Z,39.99
2023-03-12T14:33:51.928Z,40.38
2023-03-12T14:36:27.166Z,40.95
2023-03-12T14:39:10.165Z,39.65
2023-03-12T14:41:46.361Z,40.59
2023-03-12T14:44:22.877Z,40.21
2023-03-12T14:46:58.227Z,40.20
2023-03-12T14:49:32.379Z,40.49
2023-03-12T14:52:05.770Z,41.29
2023-03-12T14:54:40.212Z,39.31
2023-03-12T14:57:15.578Z,41.06
2023-03-12T14:59:53.629Z,41.25
2023-03-12T15:02:27.496Z,40.69
2023-03-12T15:05:02.820Z,41.30
2023-03-12T15:07:38.742Z,40.67
2023-03-12T15:10:20.487Z,41.03
2023-03-12T15:12:56.229Z,40.55
2023-03-12T15:15:37.464Z,41.35
2023-03-12T15:18:14.495Z,41.38
2023-03-12T15:20:48.283Z,40.35
2023-03-12T15:23:23.144Z,41.25
2023-03-12T15:26:14.622Z,41.04
2023-03-12T15:28:56.078Z,41.10
2023-03-12T15:31:29.446Z,41.99
2023-03-12T15:34:03.927Z,40.77
2023-03-12T15:36:37.411Z,41.08
2023-03-12T15:39:21.000Z,41.50
2023-03-12T15:41:58.998Z,41.67
2023-03-12T15:44:37.390Z,41.39
2023-03-12T15:47:12.484Z,42.48
2023-03-12T15:49:52.868Z,42.12
2023-03-12T15:52:29.482Z,42.67
2023-03-12T15:55:07.526Z,42.93
2023-03-12T15:57:47.797Z,42.93
2023-03-12T16:00:23.582Z,42.79
2023-03-12T16:02:57.989Z,42.81
2023-03-12T16:05:33.133Z,42.74
2023-03-12T16:08:13.896Z,42.62
2023-03-12T16:10:47.807Z,42.49
2023-03-12T16:13:26.548Z,43.52
2023-03-12T16:16:00.919Z,42.90
2023-03-12T16:18:34.121Z,43.16
2023-03-12T16:21:07.459Z,42.40
2023-03-12T16:23:40.464Z,42.93
2023-03-12T16:26:14.346Z,43.58
2023-03-12T16:28:49.475Z,43.01
2023-03-12T16:31:22.837Z,43.61
2023-03-12T16:33:55.780Z,43.65
2023-03-12T16:36:29.209Z,44.16
2023-03-12T16:39:02.581Z,42.84
2023-03-12T16:41:35.556Z,43.87
2023-03-12T16:44:14.019Z,44.07
2023-03-12T16:46:47.039Z,43.75
2023-03-12T16:49:21.091Z,43.87
2023-03-12T16:51:54.367Z,44.01
2023-03-12T16:54:27.298Z,44.76
2023-03-12T16:57:00.952Z,44.79
2023-03-12T16:59:38.154Z,45.05
2023-03-12T17:02:16.284Z,44.92
2023-03-12T17:04:51.098Z,46.71
2023-03-12T17:07:24.003Z,45.78
2023-03-12T17:09:57.396Z,45.42
2023-03-12T17:12:32.832Z,45.71
2023-03-12T17:15:09.662Z,47.01
2023-03-12T17:17:43.252Z,45.89
2023-03-12T17:20:17.638Z,46.31
2023-03-12T17:22:50.705Z,46.93
2023-03-12T17:25:24.975Z,46.44
2023-03-12T17:27:58.381Z,46.70
2023-03-12T17:30:40.819Z,46.56
2023-03-12T17:33:15.713Z,46.98
2023-03-12T17:35:56.932Z,48.33
2023-03-12T17:38:30.356Z,47.20
2023-03-12T17:41:09.388Z,47.62
2023-03-12T17:43:44.591Z,47.31
2023-03-12T17:46:19.222Z,46.87
2023-03-12T17:54:49.955Z,47.25
2023-03-12T17:57:25.063Z,47.56
2023-03-12T17:59:58.459Z,48.11
2023-03-12T18:02:34.514Z,47.24
2023-03-12T18:05:08.508Z,48.11
2023-03-12T18:07:42.602Z,48.29
2023-03-12T18:10:16.525Z,47.54
2023-03-12T18:12:50.177Z,48.41
2023-03-12T18:15:27.986Z,48.63
2023-03-12T18:18:02.626Z,49.44
2023-03-12T18:20:39.665Z,49.84
2023-03-12T18:23:13.156Z,49.21
2023-03-12T18:25:51.488Z,48.40
2023-03-12T18:28:26.728Z,48.66
2023-03-12T18:31:00.258Z,49.29
2023-03-12T18:33:36.655Z,49.30
2023-03-12T18:36:10.305Z,48.00
2023-03-12T18:38:47.099Z,49.25
2023-03-12T18:41:22.575Z,49.67
2023-03-12T18:43:55.906Z,48.86
2023-03-12T18:46:29.695Z,48.50
2023-03-12T18:49:07.663Z,49.47
2023-03-12T18:51:41.133Z,48.75
2023-03-12T18:54:14.813Z,49.13
2023-03-12T18:56:48.055Z,49.22
2023-03-12T18:59:21.441Z,49.26
2023-03-12T19:01:54.815Z,50.18
2023-03-12T19:04:29.700Z,49.69
2023-03-12T19:07:03.335Z,48.80
2023-03-12T19:09:36.616Z,48.86
2023-03-12T19:12:10.313Z,48.28
2023-03-12T19:14:44.236Z,48.52
2023-03-12T19:17:18.430Z,48.33
2023-03-12T19:19:53.700Z,48.76
2023-03-12T19:22:27.063Z,48.64
2023-03-12T19:25:00.173Z,49.30
2023-03-12T19:27:33.341Z,48.89
2023-03-12T19:30:07.434Z,48.45
2023-03-12T19:32:44.252Z,48.94
2023-03-12T19:35:19.827Z,48.86
2023-03-12T19:37:53.114Z,47.99
2023-03-12T19:40:26.473Z,48.79
2023-03-12T19:42:59.562Z,49.39
2023-03-12T19:45:32.946Z,48.37
2023-03-12T19:48:06.290Z,48.43
2023-03-12T19:50:41.032Z,48.81
2023-03-12T19:53:14.439Z,48.72
2023-03-12T19:55:48.043Z,49.13
2023-03-12T19:58:21.255Z,48.15
2023-03-12T20:00:54.514Z,48.47
2023-03-12T20:03:28.464Z,48.85
2023-03-12T20:06:03.395Z,49.45
2023-03-12T20:08:36.564Z,48.89
2023-03-12T20:11:11.103Z,48.81
2023-03-12T20:13:44.469Z,49.06
2023-03-12T20:16:19.080Z,49.12
2023-03-12T20:18:53.048Z,49.38
2023-03-12T20:21:29.508Z,48.21
2023-03-12T20:24:03.464Z,48.92
2023-03-12T20:26:39.559Z,48.86
2023-03-12T20:29:12.632Z,48.80
2023-03-12T20:31:46.030Z,49.74
2023-03-12T20:34:19.604Z,50.04
2023-03-12T20:36:54.187Z,49.74
2023-03-12T20:39:27.352Z,50.09
2023-03-12T20:42:00.617Z,49.86
2023-03-12T20:44:33.713Z,50.42
2023-03-12T20:47:07.133Z,51.02
2023-03-12T20:49:40.740Z,51.53
2023-03-12T20:52:15.137Z,50.76
2023-03-12T20:54:48.465Z,50.95
2023-03-12T20:57:21.920Z,50.62
2023-03-12T20:59:55.193Z,50.14
2023-03-12T21:02:28.497Z,51.38
2023-03-12T21:05:01.890Z,51.37
2023-03-12T21:07:36.471Z,50.81
2023-03-12T21:10:10.236Z,50.71
2023-03-12T21:12:43.884Z,51.57
2023-03-12T21:15:17.262Z,51.39
2023-03-12T21:17:50.730Z,51.67
2023-03-12T21:20:23.941Z,51.72
2023-03-12T21:22:58.639Z,51.37
2023-03-12T21:25:33.490Z,51.47
2023-03-12T21:28:07.206Z,52.55
2023-03-12T21:30:40.295Z,52.01
2023-03-12T21:33:13.635Z,52.05
2023-03-12T21:35:47.201Z,52.40
2023-03-12T21:38:21.792Z,52.09
2023-03-12T21:40:57.484Z,52.84
2023-03-12T21:43:30.575Z,52.34
2023-03-12T21:46:04.798Z,51.71
2023-03-12T21:48:38.930Z,52.43
2023-03-12T21:51:12.708Z,53.13
2023-03-12T21:53:47.068Z,52.60
2023-03-12T21:56:20.263Z,52.60
2023-03-12T21:58:53.469Z,52.49
2023-03-12T22:01:26.884Z,53.29
2023-03-12T22:04:02.506Z,53.40
2023-03-12T22:06:35.674Z,53.08
2023-03-12T22:09:09.994Z,52.98
2023-03-12T22:11:43.076Z,54.10
2023-03-12T22:14:16.341Z,53.91
2023-03-12T22:16:49.961Z,54.17
2023-03-12T22:19:24.401Z,53.36
2023-03-12T22:21:58.402Z,54.01
2023-03-12T22:24:34.033Z,53.67
2023-03-12T22:27:07.568Z,54.12
2023-03-12T22:29:40.494Z,53.84
2023-03-12T22:32:13.836Z,53.54
2023-03-12T22:34:46.844Z,53.21
2023-03-12T22:37:19.852Z,54.04
2023-03-12T22:39:58.268Z,54.14
2023-03-12T22:42:31.408Z,54.65
2023-03-12T22:45:05.019Z,54.69
2023-03-12T22:47:38.565Z,55.29
2023-03-12T22:50:12.222Z,55.29
2023-03-12T22:52:45.160Z,54.78
2023-03-12T22:55:19.482Z,54.90
2023-03-12T22:57:52.504Z,53.72
2023-03-12T23:00:26.699Z,55.29
2023-03-12T23:03:00.060Z,54.29
2023-03-12T23:05:33.018Z,55.25
2023-03-12T23:08:06.421Z,55.08
2023-03-12T23:10:40.690Z,55.21
2023-03-12T23:13:14.388Z,55.61
2023-03-12T23:15:48.177Z,54.98
2023-03-12T23:18:21.757Z,55.83
2023-03-12T23:20:58.578Z,55.23
2023-03-12T23:23:31.777Z,55.81
2023-03-12T23:26:06.343Z,55.56
2023-03-12T23:28:39.422Z,55.46
2023-03-12T23:31:12.712Z,55.58
2023-03-12T23:33:46.049Z,55.32
2023-03-12T23:36:20.058Z,55.44
2023-03-12T23:38:53.752Z,55.77
2023-03-12T23:41:30.422Z,55.35
2023-03-12T23:44:03.433Z,57.55
2023-03-12T23:46:36.704Z,57.83
2023-03-12T23:49:09.607Z,57.67
2023-03-12T23:51:42.597Z,59.24
2023-03-12T23:54:16.362Z,59.03
2023-03-12T23:56:50.618Z,59.18
2023-03-12T23:59:23.660Z,59.40
